sensor_id;sensor_type;location;lat;lon;timestamp;temperature;humidity
11963;DHT22;62678;52.130;5.584;2023-05-07T00:01:39;15.40;99.90
11963;DHT22;62678;52.130;5.584;2023-05-07T00:04:06;15.40;99.90
11963;DHT22;62678;52.130;5.584;2023-05-07T00:06:33;15.40;99.90
11963;DHT22;62678;52.130;5.584;2023-05-07T00:09:01;15.40;99.90
11963;DHT22;62678;52.130;5.584;2023-05-07T00:11:29;15.40;99.90
11963;DHT22;62678;52.130;5.584;2023-05-07T00:13:56;15.30;99.90
11963;DHT22;62678;52.130;5.584;2023-05-07T00:16:23;15.30;99.90
11963;DHT22;62678;52.130;5.584;2023-05-07T00:18:50;15.30;99.90
11963;DHT22;62678;52.130;5.584;2023-05-07T00:21:17;15.30;99.90
11963;DHT22;62678;52.130;5.584;2023-05-07T00:23:45;15.40;99.90
11963;DHT22;62678;52.130;5.584;2023-05-07T00:26:14;15.40;99.90
11963;DHT22;62678;52.130;5.584;2023-05-07T00:28:41;15.50;99.90
11963;DHT22;62678;52.130;5.584;2023-05-07T00:31:08;15.60;99.90
11963;DHT22;62678;52.130;5.584;2023-05-07T00:33:35;15.50;99.90
11963;DHT22;62678;52.130;5.584;2023-05-07T00:36:02;15.50;99.90
11963;DHT22;62678;52.130;5.584;2023-05-07T00:38:29;15.40;99.90
11963;DHT22;62678;52.130;5.584;2023-05-07T00:40:56;15.40;99.90
11963;DHT22;62678;52.130;5.584;2023-05-07T00:43:24;15.40;99.90
11963;DHT22;62678;52.130;5.584;2023-05-07T00:45:53;15.30;99.90
11963;DHT22;62678;52.130;5.584;2023-05-07T00:48:20;15.30;99.90
11963;DHT22;62678;52.130;5.584;2023-05-07T00:50:47;15.20;99.90
11963;DHT22;62678;52.130;5.584;2023-05-07T00:53:14;15.20;99.90
11963;DHT22;62678;52.130;5.584;2023-05-07T00:55:41;15.20;99.90
11963;DHT22;62678;52.130;5.584;2023-05-07T00:58:08;15.20;99.90
11963;DHT22;62678;52.130;5.584;2023-05-07T01:00:37;15.20;99.90
11963;DHT22;62678;52.130;5.584;2023-05-07T01:03:05;15.20;99.90
11963;DHT22;62678;52.130;5.584;2023-05-07T01:05:32;15.20;99.90
11963;DHT22;62678;52.130;5.584;2023-05-07T01:07:59;15.10;99.90
11963;DHT22;62678;52.130;5.584;2023-05-07T01:10:27;15.10;99.90
11963;DHT22;62678;52.130;5.584;2023-05-07T01:12:57;15.10;99.90
11963;DHT22;62678;52.130;5.584;2023-05-07T01:15:25;15.10;99.90
11963;DHT22;62678;52.130;5.584;2023-05-07T01:17:53;15.20;99.90
11963;DHT22;62678;52.130;5.584;2023-05-07T01:20:20;15.20;99.90
11963;DHT22;62678;52.130;5.584;2023-05-07T01:22:49;15.20;99.90
11963;DHT22;62678;52.130;5.584;2023-05-07T01:25:16;15.20;99.90
11963;DHT22;62678;52.130;5.584;2023-05-07T01:27:44;15.20;99.90
11963;DHT22;62678;52.130;5.584;2023-05-07T01:30:13;15.20;99.90
11963;DHT22;62678;52.130;5.584;2023-05-07T01:32:43;15.20;99.90
11963;DHT22;62678;52.130;5.584;2023-05-07T01:35:26;15.20;99.90
11963;DHT22;62678;52.130;5.584;2023-05-07T01:37:55;15.30;99.90
11963;DHT22;62678;52.130;5.584;2023-05-07T01:40:23;15.20;99.90
11963;DHT22;62678;52.130;5.584;2023-05-07T01:42:51;15.30;99.90
11963;DHT22;62678;52.130;5.584;2023-05-07T01:45:18;15.20;99.90
11963;DHT22;62678;52.130;5.584;2023-05-07T01:47:45;15.20;99.90
11963;DHT22;62678;52.130;5.584;2023-05-07T01:50:14;15.20;99.90
11963;DHT22;62678;52.130;5.584;2023-05-07T01:52:43;15.20;99.90
11963;DHT22;62678;52.130;5.584;2023-05-07T01:55:11;15.10;99.90
11963;DHT22;62678;52.130;5.584;2023-05-07T01:57:38;15.10;99.90
11963;DHT22;62678;52.130;5.584;2023-05-07T02:00:06;15.00;99.90
11963;DHT22;62678;52.130;5.584;2023-05-07T02:02:34;15.10;99.90
11963;DHT22;62678;52.130;5.584;2023-05-07T02:05:01;15.10;99.90
11963;DHT22;62678;52.130;5.584;2023-05-07T02:07:28;15.10;99.90
11963;DHT22;62678;52.130;5.584;2023-05-07T02:09:55;15.10;99.90
11963;DHT22;62678;52.130;5.584;2023-05-07T02:12:23;15.00;99.90
11963;DHT22;62678;52.130;5.584;2023-05-07T02:14:50;15.10;99.90
11963;DHT22;62678;52.130;5.584;2023-05-07T02:17:17;15.10;99.90
11963;DHT22;62678;52.130;5.584;2023-05-07T02:19:44;15.10;99.90
11963;DHT22;62678;52.130;5.584;2023-05-07T02:22:11;15.10;99.90
11963;DHT22;62678;52.130;5.584;2023-05-07T02:24:38;15.10;99.90
11963;DHT22;62678;52.130;5.584;2023-05-07T02:27:05;15.10;99.90
11963;DHT22;62678;52.130;5.584;2023-05-07T02:29:33;15.10;99.90
11963;DHT22;62678;52.130;5.584;2023-05-07T02:32:00;15.10;99.90
11963;DHT22;62678;52.130;5.584;2023-05-07T02:34:27;15.10;99.90
11963;DHT22;62678;52.130;5.584;2023-05-07T02:36:54;15.10;99.90
11963;DHT22;62678;52.130;5.584;2023-05-07T02:39:21;15.10;99.90
11963;DHT22;62678;52.130;5.584;2023-05-07T02:41:48;15.10;99.90
11963;DHT22;62678;52.130;5.584;2023-05-07T02:44:15;15.20;99.90
11963;DHT22;62678;52.130;5.584;2023-05-07T02:46:43;15.20;99.90
11963;DHT22;62678;52.130;5.584;2023-05-07T02:49:10;15.10;99.90
11963;DHT22;62678;52.130;5.584;2023-05-07T02:51:37;15.10;99.90
11963;DHT22;62678;52.130;5.584;2023-05-07T02:54:04;15.00;99.90
11963;DHT22;62678;52.130;5.584;2023-05-07T02:56:31;15.10;99.90
11963;DHT22;62678;52.130;5.584;2023-05-07T02:58:58;15.10;99.90
11963;DHT22;62678;52.130;5.584;2023-05-07T03:01:25;15.00;99.90
11963;DHT22;62678;52.130;5.584;2023-05-07T03:03:54;15.00;99.90
11963;DHT22;62678;52.130;5.584;2023-05-07T03:06:21;15.00;99.90
11963;DHT22;62678;52.130;5.584;2023-05-07T03:08:48;15.10;99.90
11963;DHT22;62678;52.130;5.584;2023-05-07T03:11:15;15.00;99.90
11963;DHT22;62678;52.130;5.584;2023-05-07T03:13:42;15.10;99.90
11963;DHT22;62678;52.130;5.584;2023-05-07T03:16:09;15.10;99.90
11963;DHT22;62678;52.130;5.584;2023-05-07T03:18:36;15.10;99.90
11963;DHT22;62678;52.130;5.584;2023-05-07T03:21:05;15.10;99.90
11963;DHT22;62678;52.130;5.584;2023-05-07T03:23:31;15.10;99.90
11963;DHT22;62678;52.130;5.584;2023-05-07T03:25:58;15.10;99.90
11963;DHT22;62678;52.130;5.584;2023-05-07T03:28:25;15.10;99.90
11963;DHT22;62678;52.130;5.584;2023-05-07T03:30:52;15.00;99.90
11963;DHT22;62678;52.130;5.584;2023-05-07T03:33:19;15.10;99.90
11963;DHT22;62678;52.130;5.584;2023-05-07T03:35:46;15.10;99.90
11963;DHT22;62678;52.130;5.584;2023-05-07T03:38:14;15.00;99.90
11963;DHT22;62678;52.130;5.584;2023-05-07T03:40:41;15.10;99.90
11963;DHT22;62678;52.130;5.584;2023-05-07T03:43:08;15.10;99.90
11963;DHT22;62678;52.130;5.584;2023-05-07T03:45:35;15.10;99.90
11963;DHT22;62678;52.130;5.584;2023-05-07T03:48:03;15.00;99.90
11963;DHT22;62678;52.130;5.584;2023-05-07T03:50:30;15.00;99.90
11963;DHT22;62678;52.130;5.584;2023-05-07T03:52:57;15.00;99.90
11963;DHT22;62678;52.130;5.584;2023-05-07T03:55:25;15.00;99.90
11963;DHT22;62678;52.130;5.584;2023-05-07T03:57:52;15.00;99.90
11963;DHT22;62678;52.130;5.584;2023-05-07T04:00:19;15.00;99.90
11963;DHT22;62678;52.130;5.584;2023-05-07T04:02:47;15.10;99.90
11963;DHT22;62678;52.130;5.584;2023-05-07T04:05:14;15.00;99.90
11963;DHT22;62678;52.130;5.584;2023-05-07T04:07:41;15.00;99.90
11963;DHT22;62678;52.130;5.584;2023-05-07T04:10:09;15.00;99.90
11963;DHT22;62678;52.130;5.584;2023-05-07T04:12:37;15.10;99.90
11963;DHT22;62678;52.130;5.584;2023-05-07T04:15:05;15.10;99.90
11963;DHT22;62678;52.130;5.584;2023-05-07T04:17:32;15.10;99.90
11963;DHT22;62678;52.130;5.584;2023-05-07T04:19:59;15.10;99.90
11963;DHT22;62678;52.130;5.584;2023-05-07T04:22:26;15.10;99.90
11963;DHT22;62678;52.130;5.584;2023-05-07T04:24:53;15.10;99.90
11963;DHT22;62678;52.130;5.584;2023-05-07T04:27:20;15.20;99.90
11963;DHT22;62678;52.130;5.584;2023-05-07T04:29:48;15.20;99.90
11963;DHT22;62678;52.130;5.584;2023-05-07T04:32:15;15.20;99.90
11963;DHT22;62678;52.130;5.584;2023-05-07T04:34:43;15.20;99.90
11963;DHT22;62678;52.130;5.584;2023-05-07T04:37:09;15.20;99.90
11963;DHT22;62678;52.130;5.584;2023-05-07T04:39:36;15.30;99.90
11963;DHT22;62678;52.130;5.584;2023-05-07T04:42:03;15.20;99.90
11963;DHT22;62678;52.130;5.584;2023-05-07T04:44:31;15.30;99.90
11963;DHT22;62678;52.130;5.584;2023-05-07T04:46:59;15.20;99.90
11963;DHT22;62678;52.130;5.584;2023-05-07T04:49:26;15.20;99.90
11963;DHT22;62678;52.130;5.584;2023-05-07T04:51:53;15.20;99.90
11963;DHT22;62678;52.130;5.584;2023-05-07T04:54:20;15.20;99.90
11963;DHT22;62678;52.130;5.584;2023-05-07T04:56:47;15.20;99.90
11963;DHT22;62678;52.130;5.584;2023-05-07T04:59:13;15.20;99.90
11963;DHT22;62678;52.130;5.584;2023-05-07T05:01:40;15.30;99.90
11963;DHT22;62678;52.130;5.584;2023-05-07T05:04:09;15.30;99.90
11963;DHT22;62678;52.130;5.584;2023-05-07T05:06:36;15.40;99.90
11963;DHT22;62678;52.130;5.584;2023-05-07T05:09:02;15.50;99.90
11963;DHT22;62678;52.130;5.584;2023-05-07T05:11:30;15.40;99.90
11963;DHT22;62678;52.130;5.584;2023-05-07T05:13:58;15.40;99.90
11963;DHT22;62678;52.130;5.584;2023-05-07T05:16:26;15.50;99.90
11963;DHT22;62678;52.130;5.584;2023-05-07T05:18:52;15.50;99.90
11963;DHT22;62678;52.130;5.584;2023-05-07T05:21:21;15.60;99.90
11963;DHT22;62678;52.130;5.584;2023-05-07T05:23:48;15.60;99.90
11963;DHT22;62678;52.130;5.584;2023-05-07T05:26:15;15.50;99.90
11963;DHT22;62678;52.130;5.584;2023-05-07T05:28:42;15.60;99.90
11963;DHT22;62678;52.130;5.584;2023-05-07T05:31:09;15.80;99.90
11963;DHT22;62678;52.130;5.584;2023-05-07T05:33:35;15.70;99.90
11963;DHT22;62678;52.130;5.584;2023-05-07T05:36:03;15.80;99.90
11963;DHT22;62678;52.130;5.584;2023-05-07T05:38:31;15.80;99.90
11963;DHT22;62678;52.130;5.584;2023-05-07T05:40:58;15.80;99.90
11963;DHT22;62678;52.130;5.584;2023-05-07T05:43:25;15.90;99.90
11963;DHT22;62678;52.130;5.584;2023-05-07T05:45:52;15.90;99.90
11963;DHT22;62678;52.130;5.584;2023-05-07T05:48:19;15.90;99.90
11963;DHT22;62678;52.130;5.584;2023-05-07T05:50:45;15.90;99.90
11963;DHT22;62678;52.130;5.584;2023-05-07T05:53:12;15.90;99.90
11963;DHT22;62678;52.130;5.584;2023-05-07T05:55:41;16.00;99.90
11963;DHT22;62678;52.130;5.584;2023-05-07T05:58:09;16.00;99.90
11963;DHT22;62678;52.130;5.584;2023-05-07T06:00:36;16.00;99.90
11963;DHT22;62678;52.130;5.584;2023-05-07T06:03:03;16.00;99.90
11963;DHT22;62678;52.130;5.584;2023-05-07T06:05:30;16.10;99.90
11963;DHT22;62678;52.130;5.584;2023-05-07T06:07:56;16.10;99.90
11963;DHT22;62678;52.130;5.584;2023-05-07T06:10:23;16.30;99.90
11963;DHT22;62678;52.130;5.584;2023-05-07T06:12:53;16.30;99.90
11963;DHT22;62678;52.130;5.584;2023-05-07T06:15:20;16.40;99.90
11963;DHT22;62678;52.130;5.584;2023-05-07T06:17:47;16.30;99.90
11963;DHT22;62678;52.130;5.584;2023-05-07T06:20:14;16.40;99.90
11963;DHT22;62678;52.130;5.584;2023-05-07T06:22:41;16.40;99.90
11963;DHT22;62678;52.130;5.584;2023-05-07T06:25:09;16.40;99.90
11963;DHT22;62678;52.130;5.584;2023-05-07T06:27:35;16.40;99.90
11963;DHT22;62678;52.130;5.584;2023-05-07T06:30:05;16.40;99.90
11963;DHT22;62678;52.130;5.584;2023-05-07T06:32:33;16.30;99.90
11963;DHT22;62678;52.130;5.584;2023-05-07T06:35:00;16.30;99.90
11963;DHT22;62678;52.130;5.584;2023-05-07T06:37:26;16.50;99.90
11963;DHT22;62678;52.130;5.584;2023-05-07T06:39:53;16.70;99.90
11963;DHT22;62678;52.130;5.584;2023-05-07T06:42:20;16.70;99.90
11963;DHT22;62678;52.130;5.584;2023-05-07T06:44:47;16.70;99.90
11963;DHT22;62678;52.130;5.584;2023-05-07T06:47:15;17.00;99.90
11963;DHT22;62678;52.130;5.584;2023-05-07T06:49:42;17.10;99.90
11963;DHT22;62678;52.130;5.584;2023-05-07T06:52:10;17.10;99.90
11963;DHT22;62678;52.130;5.584;2023-05-07T06:54:36;17.10;99.90
11963;DHT22;62678;52.130;5.584;2023-05-07T06:57:03;17.20;99.90
11963;DHT22;62678;52.130;5.584;2023-05-07T06:59:30;17.30;99.90
11963;DHT22;62678;52.130;5.584;2023-05-07T07:01:57;17.30;99.90
11963;DHT22;62678;52.130;5.584;2023-05-07T07:04:25;17.40;99.90
11963;DHT22;62678;52.130;5.584;2023-05-07T07:06:53;17.30;99.90
11963;DHT22;62678;52.130;5.584;2023-05-07T07:09:22;17.10;99.90
11963;DHT22;62678;52.130;5.584;2023-05-07T07:11:49;17.00;99.90
11963;DHT22;62678;52.130;5.584;2023-05-07T07:14:16;17.20;99.90
11963;DHT22;62678;52.130;5.584;2023-05-07T07:16:43;17.20;99.90
11963;DHT22;62678;52.130;5.584;2023-05-07T07:19:12;17.40;99.90
11963;DHT22;62678;52.130;5.584;2023-05-07T07:21:42;17.40;99.90
11963;DHT22;62678;52.130;5.584;2023-05-07T07:24:10;17.30;99.90
11963;DHT22;62678;52.130;5.584;2023-05-07T07:26:37;17.50;99.90
11963;DHT22;62678;52.130;5.584;2023-05-07T07:29:05;17.60;99.90
11963;DHT22;62678;52.130;5.584;2023-05-07T07:31:32;17.40;99.90
11963;DHT22;62678;52.130;5.584;2023-05-07T07:33:59;17.40;99.90
11963;DHT22;62678;52.130;5.584;2023-05-07T07:36:26;17.30;99.90
11963;DHT22;62678;52.130;5.584;2023-05-07T07:38:55;17.50;99.90
11963;DHT22;62678;52.130;5.584;2023-05-07T07:41:22;17.70;99.90
11963;DHT22;62678;52.130;5.584;2023-05-07T07:43:49;17.70;99.90
11963;DHT22;62678;52.130;5.584;2023-05-07T07:46:17;17.90;99.90
11963;DHT22;62678;52.130;5.584;2023-05-07T07:48:44;18.00;99.90
11963;DHT22;62678;52.130;5.584;2023-05-07T07:51:11;18.20;99.90
11963;DHT22;62678;52.130;5.584;2023-05-07T07:53:38;18.30;99.90
11963;DHT22;62678;52.130;5.584;2023-05-07T07:56:07;18.40;99.90
11963;DHT22;62678;52.130;5.584;2023-05-07T07:58:34;18.40;99.90
11963;DHT22;62678;52.130;5.584;2023-05-07T08:01:03;18.50;99.90
11963;DHT22;62678;52.130;5.584;2023-05-07T08:03:30;18.40;99.90
11963;DHT22;62678;52.130;5.584;2023-05-07T08:05:58;18.50;99.90
11963;DHT22;62678;52.130;5.584;2023-05-07T08:08:26;18.40;99.90
11963;DHT22;62678;52.130;5.584;2023-05-07T08:10:53;18.30;99.90
11963;DHT22;62678;52.130;5.584;2023-05-07T08:13:21;18.50;99.90
11963;DHT22;62678;52.130;5.584;2023-05-07T08:15:49;18.40;99.90
11963;DHT22;62678;52.130;5.584;2023-05-07T08:18:16;18.60;99.90
11963;DHT22;62678;52.130;5.584;2023-05-07T08:20:43;18.80;99.90
11963;DHT22;62678;52.130;5.584;2023-05-07T08:23:10;18.90;99.90
11963;DHT22;62678;52.130;5.584;2023-05-07T08:25:37;19.00;99.90
11963;DHT22;62678;52.130;5.584;2023-05-07T08:28:06;18.90;99.90
11963;DHT22;62678;52.130;5.584;2023-05-07T08:30:35;18.80;99.90
11963;DHT22;62678;52.130;5.584;2023-05-07T08:33:03;18.80;99.90
11963;DHT22;62678;52.130;5.584;2023-05-07T08:35:30;19.00;99.90
11963;DHT22;62678;52.130;5.584;2023-05-07T08:37:57;19.10;99.90
11963;DHT22;62678;52.130;5.584;2023-05-07T08:40:25;19.20;99.90
11963;DHT22;62678;52.130;5.584;2023-05-07T08:42:53;19.00;99.90
11963;DHT22;62678;52.130;5.584;2023-05-07T08:45:21;19.00;99.90
11963;DHT22;62678;52.130;5.584;2023-05-07T08:47:52;18.60;99.90
11963;DHT22;62678;52.130;5.584;2023-05-07T08:50:21;18.30;99.90
11963;DHT22;62678;52.130;5.584;2023-05-07T08:52:48;18.40;99.90
11963;DHT22;62678;52.130;5.584;2023-05-07T08:55:16;18.40;99.90
11963;DHT22;62678;52.130;5.584;2023-05-07T08:57:44;18.20;99.90
11963;DHT22;62678;52.130;5.584;2023-05-07T09:00:13;18.20;99.90
11963;DHT22;62678;52.130;5.584;2023-05-07T09:02:41;18.20;99.90
11963;DHT22;62678;52.130;5.584;2023-05-07T09:05:10;18.30;99.90
11963;DHT22;62678;52.130;5.584;2023-05-07T09:07:37;18.20;99.90
11963;DHT22;62678;52.130;5.584;2023-05-07T09:10:05;18.30;99.90
11963;DHT22;62678;52.130;5.584;2023-05-07T09:12:32;18.40;99.90
11963;DHT22;62678;52.130;5.584;2023-05-07T09:15:00;18.40;99.90
11963;DHT22;62678;52.130;5.584;2023-05-07T09:17:28;18.50;99.90
11963;DHT22;62678;52.130;5.584;2023-05-07T09:19:55;18.60;99.90
11963;DHT22;62678;52.130;5.584;2023-05-07T09:22:24;18.80;99.90
11963;DHT22;62678;52.130;5.584;2023-05-07T09:24:51;18.90;99.90
11963;DHT22;62678;52.130;5.584;2023-05-07T09:27:18;18.90;99.90
11963;DHT22;62678;52.130;5.584;2023-05-07T09:29:46;19.00;99.90
11963;DHT22;62678;52.130;5.584;2023-05-07T09:32:15;18.90;99.90
11963;DHT22;62678;52.130;5.584;2023-05-07T09:34:42;18.90;99.90
11963;DHT22;62678;52.130;5.584;2023-05-07T09:37:13;18.90;99.90
11963;DHT22;62678;52.130;5.584;2023-05-07T09:39:42;19.00;99.90
11963;DHT22;62678;52.130;5.584;2023-05-07T09:42:10;19.10;99.90
11963;DHT22;62678;52.130;5.584;2023-05-07T09:44:37;19.10;99.90
11963;DHT22;62678;52.130;5.584;2023-05-07T09:47:05;19.00;99.90
11963;DHT22;62678;52.130;5.584;2023-05-07T09:49:35;19.20;99.90
11963;DHT22;62678;52.130;5.584;2023-05-07T09:52:04;19.40;99.90
11963;DHT22;62678;52.130;5.584;2023-05-07T09:54:32;19.50;99.90
11963;DHT22;62678;52.130;5.584;2023-05-07T09:57:01;19.60;99.90
11963;DHT22;62678;52.130;5.584;2023-05-07T09:59:30;19.70;99.90
11963;DHT22;62678;52.130;5.584;2023-05-07T10:01:59;19.70;99.90
11963;DHT22;62678;52.130;5.584;2023-05-07T10:04:26;19.80;99.90
11963;DHT22;62678;52.130;5.584;2023-05-07T10:06:54;19.80;99.90
11963;DHT22;62678;52.130;5.584;2023-05-07T10:09:23;20.00;99.90
11963;DHT22;62678;52.130;5.584;2023-05-07T10:11:51;20.30;99.90
11963;DHT22;62678;52.130;5.584;2023-05-07T10:14:20;20.30;99.90
11963;DHT22;62678;52.130;5.584;2023-05-07T10:16:48;20.30;99.90
11963;DHT22;62678;52.130;5.584;2023-05-07T10:19:15;20.40;99.90
11963;DHT22;62678;52.130;5.584;2023-05-07T10:21:47;20.40;99.90
11963;DHT22;62678;52.130;5.584;2023-05-07T10:24:20;20.30;99.90
11963;DHT22;62678;52.130;5.584;2023-05-07T10:26:50;20.20;99.90
11963;DHT22;62678;52.130;5.584;2023-05-07T10:29:29;20.10;99.90
11963;DHT22;62678;52.130;5.584;2023-05-07T10:31:59;20.10;99.90
11963;DHT22;62678;52.130;5.584;2023-05-07T10:34:36;20.20;99.90
11963;DHT22;62678;52.130;5.584;2023-05-07T10:37:04;20.30;99.90
11963;DHT22;62678;52.130;5.584;2023-05-07T10:39:31;20.40;99.90
11963;DHT22;62678;52.130;5.584;2023-05-07T10:42:07;20.50;99.90
11963;DHT22;62678;52.130;5.584;2023-05-07T10:44:36;20.80;99.90
11963;DHT22;62678;52.130;5.584;2023-05-07T10:47:08;20.80;99.90
11963;DHT22;62678;52.130;5.584;2023-05-07T10:49:36;20.90;99.90
11963;DHT22;62678;52.130;5.584;2023-05-07T10:52:14;21.00;99.90
11963;DHT22;62678;52.130;5.584;2023-05-07T10:54:41;21.20;99.90
11963;DHT22;62678;52.130;5.584;2023-05-07T10:57:32;21.40;99.90
11963;DHT22;62678;52.130;5.584;2023-05-07T11:00:00;21.30;99.90
11963;DHT22;62678;52.130;5.584;2023-05-07T11:05:29;21.60;99.90
11963;DHT22;62678;52.130;5.584;2023-05-07T11:07:57;22.00;99.90
11963;DHT22;62678;52.130;5.584;2023-05-07T11:10:47;22.20;99.90
11963;DHT22;62678;52.130;5.584;2023-05-07T11:13:15;22.10;99.90
11963;DHT22;62678;52.130;5.584;2023-05-07T11:15:44;22.50;99.90
11963;DHT22;62678;52.130;5.584;2023-05-07T11:18:13;22.60;99.90
11963;DHT22;62678;52.130;5.584;2023-05-07T11:20:52;22.20;99.90
11963;DHT22;62678;52.130;5.584;2023-05-07T11:23:55;22.20;99.90
11963;DHT22;62678;52.130;5.584;2023-05-07T11:26:24;22.30;99.90
11963;DHT22;62678;52.130;5.584;2023-05-07T11:28:53;22.80;99.90
11963;DHT22;62678;52.130;5.584;2023-05-07T11:31:24;22.50;99.90
11963;DHT22;62678;52.130;5.584;2023-05-07T11:33:54;22.50;99.90
11963;DHT22;62678;52.130;5.584;2023-05-07T11:36:23;22.60;99.90
11963;DHT22;62678;52.130;5.584;2023-05-07T11:38:50;22.50;99.90
11963;DHT22;62678;52.130;5.584;2023-05-07T11:41:17;22.70;99.90
11963;DHT22;62678;52.130;5.584;2023-05-07T11:43:58;22.60;99.90
11963;DHT22;62678;52.130;5.584;2023-05-07T11:46:26;22.60;99.90
11963;DHT22;62678;52.130;5.584;2023-05-07T11:48:53;22.40;99.90
11963;DHT22;62678;52.130;5.584;2023-05-07T11:51:22;22.40;99.90
11963;DHT22;62678;52.130;5.584;2023-05-07T11:53:55;22.50;99.90
11963;DHT22;62678;52.130;5.584;2023-05-07T11:56:23;22.30;99.90
11963;DHT22;62678;52.130;5.584;2023-05-07T11:58:50;22.40;99.90
11963;DHT22;62678;52.130;5.584;2023-05-07T12:01:19;22.30;99.90
11963;DHT22;62678;52.130;5.584;2023-05-07T12:03:46;22.40;99.90
11963;DHT22;62678;52.130;5.584;2023-05-07T12:06:15;22.40;99.90
11963;DHT22;62678;52.130;5.584;2023-05-07T12:08:44;22.20;99.90
11963;DHT22;62678;52.130;5.584;2023-05-07T12:11:14;22.70;99.90
11963;DHT22;62678;52.130;5.584;2023-05-07T12:13:43;22.80;99.90
11963;DHT22;62678;52.130;5.584;2023-05-07T12:16:11;22.90;99.90
11963;DHT22;62678;52.130;5.584;2023-05-07T12:18:40;23.00;99.90
11963;DHT22;62678;52.130;5.584;2023-05-07T12:21:07;23.00;99.90
11963;DHT22;62678;52.130;5.584;2023-05-07T12:23:35;23.00;99.90
11963;DHT22;62678;52.130;5.584;2023-05-07T12:26:07;23.20;99.90
11963;DHT22;62678;52.130;5.584;2023-05-07T12:28:39;23.50;99.90
11963;DHT22;62678;52.130;5.584;2023-05-07T12:31:06;23.30;99.90
11963;DHT22;62678;52.130;5.584;2023-05-07T12:33:34;23.40;99.90
11963;DHT22;62678;52.130;5.584;2023-05-07T12:36:06;23.00;99.90
11963;DHT22;62678;52.130;5.584;2023-05-07T12:38:38;23.10;99.90
11963;DHT22;62678;52.130;5.584;2023-05-07T12:41:07;22.70;99.90
11963;DHT22;62678;52.130;5.584;2023-05-07T12:43:34;22.60;99.90
11963;DHT22;62678;52.130;5.584;2023-05-07T12:46:03;22.50;99.90
11963;DHT22;62678;52.130;5.584;2023-05-07T12:48:30;22.50;99.90
11963;DHT22;62678;52.130;5.584;2023-05-07T12:50:58;22.60;99.90
11963;DHT22;62678;52.130;5.584;2023-05-07T12:53:27;22.90;99.90
11963;DHT22;62678;52.130;5.584;2023-05-07T12:55:56;23.00;99.90
11963;DHT22;62678;52.130;5.584;2023-05-07T12:58:26;22.80;99.90
11963;DHT22;62678;52.130;5.584;2023-05-07T13:00:54;23.20;99.90
11963;DHT22;62678;52.130;5.584;2023-05-07T13:03:25;23.40;99.90
11963;DHT22;62678;52.130;5.584;2023-05-07T13:05:53;23.30;99.90
11963;DHT22;62678;52.130;5.584;2023-05-07T13:08:30;23.40;99.90
11963;DHT22;62678;52.130;5.584;2023-05-07T13:10:57;23.60;99.90
11963;DHT22;62678;52.130;5.584;2023-05-07T13:13:25;23.30;99.90
11963;DHT22;62678;52.130;5.584;2023-05-07T13:15:52;23.20;99.90
11963;DHT22;62678;52.130;5.584;2023-05-07T13:18:19;23.00;99.90
11963;DHT22;62678;52.130;5.584;2023-05-07T13:20:46;23.00;99.90
11963;DHT22;62678;52.130;5.584;2023-05-07T13:23:13;23.10;99.90
11963;DHT22;62678;52.130;5.584;2023-05-07T13:25:41;23.30;99.90
11963;DHT22;62678;52.130;5.584;2023-05-07T13:28:08;23.00;99.90
11963;DHT22;62678;52.130;5.584;2023-05-07T13:30:35;23.10;99.90
11963;DHT22;62678;52.130;5.584;2023-05-07T13:33:02;23.20;99.90
11963;DHT22;62678;52.130;5.584;2023-05-07T13:35:28;23.40;99.90
11963;DHT22;62678;52.130;5.584;2023-05-07T13:37:55;23.40;99.90
11963;DHT22;62678;52.130;5.584;2023-05-07T13:40:22;23.30;99.90
11963;DHT22;62678;52.130;5.584;2023-05-07T13:42:51;23.40;99.90
11963;DHT22;62678;52.130;5.584;2023-05-07T13:45:18;23.30;99.90
11963;DHT22;62678;52.130;5.584;2023-05-07T13:47:45;22.90;99.90
11963;DHT22;62678;52.130;5.584;2023-05-07T13:50:12;22.80;99.90
11963;DHT22;62678;52.130;5.584;2023-05-07T13:52:41;22.90;99.90
11963;DHT22;62678;52.130;5.584;2023-05-07T13:55:11;22.90;99.90
11963;DHT22;62678;52.130;5.584;2023-05-07T13:57:38;22.90;99.90
11963;DHT22;62678;52.130;5.584;2023-05-07T14:00:08;22.80;99.90
11963;DHT22;62678;52.130;5.584;2023-05-07T14:02:35;22.40;99.90
11963;DHT22;62678;52.130;5.584;2023-05-07T14:05:02;22.50;99.90
11963;DHT22;62678;52.130;5.584;2023-05-07T14:07:29;22.50;99.90
11963;DHT22;62678;52.130;5.584;2023-05-07T14:09:57;22.30;99.90
11963;DHT22;62678;52.130;5.584;2023-05-07T14:12:24;22.40;99.90
11963;DHT22;62678;52.130;5.584;2023-05-07T14:14:51;22.30;99.90
11963;DHT22;62678;52.130;5.584;2023-05-07T14:17:23;22.50;99.90
11963;DHT22;62678;52.130;5.584;2023-05-07T14:19:52;22.60;99.90
11963;DHT22;62678;52.130;5.584;2023-05-07T14:22:20;22.80;99.90
11963;DHT22;62678;52.130;5.584;2023-05-07T14:24:47;22.70;99.90
11963;DHT22;62678;52.130;5.584;2023-05-07T14:27:14;22.60;99.90
11963;DHT22;62678;52.130;5.584;2023-05-07T14:29:41;22.70;99.90
11963;DHT22;62678;52.130;5.584;2023-05-07T14:32:08;22.90;99.90
11963;DHT22;62678;52.130;5.584;2023-05-07T14:34:37;22.70;99.90
11963;DHT22;62678;52.130;5.584;2023-05-07T14:37:04;22.80;99.90
11963;DHT22;62678;52.130;5.584;2023-05-07T14:39:30;22.30;99.90
11963;DHT22;62678;52.130;5.584;2023-05-07T14:41:58;22.10;99.90
11963;DHT22;62678;52.130;5.584;2023-05-07T14:44:25;22.00;99.90
11963;DHT22;62678;52.130;5.584;2023-05-07T14:46:55;21.90;99.90
11963;DHT22;62678;52.130;5.584;2023-05-07T14:49:22;21.70;99.90
11963;DHT22;62678;52.130;5.584;2023-05-07T14:51:51;21.50;99.90
11963;DHT22;62678;52.130;5.584;2023-05-07T14:54:18;21.30;99.90
11963;DHT22;62678;52.130;5.584;2023-05-07T14:56:45;21.30;99.90
11963;DHT22;62678;52.130;5.584;2023-05-07T14:59:13;21.10;99.90
11963;DHT22;62678;52.130;5.584;2023-05-07T15:01:45;21.10;99.90
11963;DHT22;62678;52.130;5.584;2023-05-07T15:04:12;20.80;99.90
11963;DHT22;62678;52.130;5.584;2023-05-07T15:06:39;20.90;99.90
11963;DHT22;62678;52.130;5.584;2023-05-07T15:09:07;20.70;99.90
11963;DHT22;62678;52.130;5.584;2023-05-07T15:11:35;20.40;99.90
11963;DHT22;62678;52.130;5.584;2023-05-07T15:14:02;20.20;99.90
11963;DHT22;62678;52.130;5.584;2023-05-07T15:16:29;20.20;99.90
11963;DHT22;62678;52.130;5.584;2023-05-07T15:18:56;20.30;99.90
11963;DHT22;62678;52.130;5.584;2023-05-07T15:21:23;20.00;99.90
11963;DHT22;62678;52.130;5.584;2023-05-07T15:23:52;20.00;99.90
11963;DHT22;62678;52.130;5.584;2023-05-07T15:26:20;20.00;99.90
11963;DHT22;62678;52.130;5.584;2023-05-07T15:28:47;19.90;99.90
11963;DHT22;62678;52.130;5.584;2023-05-07T15:31:15;20.00;99.90
11963;DHT22;62678;52.130;5.584;2023-05-07T15:33:43;20.30;99.90
11963;DHT22;62678;52.130;5.584;2023-05-07T15:36:10;20.30;99.90
11963;DHT22;62678;52.130;5.584;2023-05-07T15:38:37;20.10;99.90